Metar z pełnej godziny Komunikat METAR ze strony awiacja.imgw.pl Metar G00 EPLL METAR EPLL 230800Z 25013G24KT 190V280 9999 SCT023CB BKN040 07/01 Q1020 =